Latest Weather Observations for Oakey

IDQ60801

Issued at 6:22 am EST Wednesday 8 April 2020 (issued every 10 minutes, with the page automatically refreshed every 10 minutes)

About weather observations | Map of weather stations | Latest weather observations for QLD | Other Formats
Station Details ID: 041359 Name: OAKEY AERO Lat: -27.40 Lon: 151.74 Height: 405.69 m
Data from the previous 72 hours. | See also: Recent months at Oakey
Date/Time
EST
Temp
°C
App
Temp
°C
Dew
Point
°C
Rel
Hum
%
Delta-T
°C
Wind Press
QNH
hPa
Press
MSL
hPa
Rain since
9am
mm
Dir  Spd
km/h
Gust
km/h
Spd
kts
Gust
kts
08/06:00am 17.5 15.2 14.0 80 2.0 E 19 24 10 13 1018.4 1017.0 0.0
08/05:30am 17.7 15.7 13.8 78 2.3 E 17 26 9 14 1018.3 1016.9 0.0
08/05:00am 17.8 15.4 13.7 77 2.4 E 19 26 10 14 1018.0 1016.7 0.0
08/04:30am 17.9 15.5 13.8 77 2.4 E 19 24 10 13 1017.6 1016.3 0.0
08/04:00am 18.0 15.6 13.7 76 2.5 E 19 28 10 15 1017.5 1016.2 0.0
08/03:30am 17.9 15.3 13.8 77 2.4 E 20 28 11 15 1017.3 1016.0 0.0
08/03:00am 17.6 14.6 13.7 78 2.3 E 22 30 12 16 1017.2 1015.9 0.0
08/02:30am 17.5 15.0 14.0 80 2.0 E 20 28 11 15 1017.4 1016.1 0.0
08/02:00am 17.3 14.4 14.0 81 1.9 E 22 28 12 15 1017.6 1016.3 0.0
08/01:30am 17.6 14.0 14.1 80 2.0 E 26 35 14 19 1017.9 1016.6 0.0
08/01:00am 17.3 14.3 13.8 80 2.0 E 22 32 12 17 1018.2 1016.8 0.0
08/12:30am 17.2 14.6 13.7 80 2.0 E 20 28 11 15 1018.2 1016.8 0.0
08/12:00am 17.0 14.5 13.5 80 2.0 ESE 19 26 10 14 1018.4 1017.0 0.0
 
Date/Time
EST
Temp
°C
App
Temp
°C
Dew
Point
°C
Rel
Hum
%
Delta-T
°C
Wind Press
QNH
hPa
Press
MSL
hPa
Rain since
9am
mm
Dir  Spd
km/h
Gust
km/h
Spd
kts
Gust
kts
07/11:30pm 17.0 14.2 13.3 79 2.1 ESE 20 26 11 14 1018.5 1017.1 0.0
07/11:00pm 17.5 15.0 13.4 77 2.4 E 19 24 10 13 1018.6 1017.2 0.0
07/10:30pm 17.8 15.0 13.3 75 2.6 ESE 20 24 11 13 1018.7 1017.3 0.0
07/10:00pm 17.9 15.6 13.0 73 2.8 ESE 17 20 9 11 1018.8 1017.4 0.0
07/09:30pm 18.3 16.6 12.5 69 3.3 ESE 13 20 7 11 1018.8 1017.4 0.0
07/09:00pm 19.0 16.9 12.3 65 3.8 ESE 15 19 8 10 1018.7 1017.3 0.0
07/08:30pm 19.4 16.6 11.2 59 4.6 ESE 17 24 9 13 1018.5 1017.1 0.0
07/08:00pm 20.0 16.6 10.7 55 5.1 ESE 19 22 10 12 1018.0 1016.7 0.0
07/07:30pm 20.5 17.0 10.3 52 5.6 E 19 26 10 14 1017.6 1016.3 0.0
07/07:00pm 18.9 15.8 7.4 47 5.9 E 13 17 7 9 1017.1 1015.8 0.0
07/06:30pm 20.4 16.8 6.7 41 7.1 E 15 17 8 9 1016.7 1015.3 0.0
07/06:00pm 21.8 18.6 6.9 38 7.8 E 13 17 7 9 1016.3 1014.9 0.0
07/05:30pm 23.1 19.6 7.2 36 8.4 ESE 15 19 8 10 1016.1 1014.7 0.0
07/05:00pm 24.7 21.5 6.9 32 9.5 ESE 13 19 7 10 1015.8 1014.4 0.0
07/04:30pm 26.0 24.2 7.1 30 10.2 ESE 6 17 3 9 1015.7 1014.3 0.0
07/04:00pm 26.6 23.1 7.1 29 10.5 ENE 15 24 8 13 1015.4 1014.1 0.0
07/03:30pm 25.8 23.5 7.4 31 9.9 SSE 9 15 5 8 1015.4 1014.1 0.0
07/03:00pm 27.0 24.0 7.5 29 10.6 E 13 24 7 13 1015.7 1014.3 0.0
07/02:30pm 26.9 24.0 6.3 27 11.0 SSW 11 17 6 9 1015.9 1014.5 0.0
07/02:00pm 26.7 23.8 6.7 28 10.7 SSE 11 24 6 13 1016.0 1014.6 0.0
07/01:30pm 26.6 24.3 7.6 30 10.3 WSW 9 15 5 8 1016.4 1015.0 0.0
07/01:00pm 25.1 22.9 7.7 33 9.4 SE 9 20 5 11 1016.7 1015.3 0.0
07/12:30pm 25.7 23.7 8.7 34 9.4 SW 9 13 5 7 1017.3 1016.0 0.0
07/12:00pm 24.3 21.8 8.3 36 8.7 ESE 11 19 6 10 1017.9 1016.6 0.0
07/11:30am 25.3 23.2 9.6 37 8.8 E 11 20 6 11 1018.4 1017.0 0.0
07/11:00am 24.4 21.9 9.6 39 8.2 E 13 24 7 13 1018.8 1017.4 0.0
07/10:30am 24.0 21.1 11.0 44 7.4 ENE 17 20 9 11 1019.3 1018.0 0.0
07/10:00am 23.3 20.0 11.7 48 6.6 E 20 28 11 15 1019.4 1018.1 0.0
07/09:30am 22.7 19.5 12.0 50 6.2 E 20 30 11 16 1019.6 1018.3 0.0
07/09:00am 21.9 18.1 12.5 55 5.4 ESE 24 32 13 17 1019.6 1018.3 0.0
07/08:30am 20.7 16.8 13.2 62 4.4 E 26 33 14 18 1019.5 1018.2 0.0
07/08:00am 18.9 18.4 15.0 78 2.3 E 11 15 6 8 1019.3 1018.0 0.0
07/07:30am 15.4 16.8 14.3 93 0.6 CALM 0 0 0 0 1018.9 1017.5 0.0
07/07:00am 12.8 13.6 12.5 98 0.2 CALM 0 0 0 0 1018.5 1017.1 0.0
07/06:30am 10.5 10.6 10.0 97 0.3 CALM 0 0 0 0 1018.2 1016.8 0.0
07/06:07am 10.1 10.0 9.6 97 0.3 CALM 0 0 0 0 1018.0 1016.7 0.0
07/06:00am 10.7 10.8 10.2 97 0.3 CALM 0 0 0 0 1018.0 1016.7 0.0
07/05:30am 10.4 10.4 9.9 97 0.3 CALM 0 0 0 0 1017.7 1016.4 0.0
07/05:29am 10.5 10.6 10.0 97 0.3 CALM 0 0 0 0 1017.7 1016.4 0.0
07/05:00am 10.9 9.9 10.4 97 0.3 SE 6 7 3 4 1017.4 1016.1 0.0
07/04:30am 11.1 10.0 10.6 97 0.3 SSE 7 9 4 5 1017.1 1015.8 0.0
07/04:00am 10.5 9.1 9.7 95 0.4 SSE 7 9 4 5 1017.0 1015.7 0.0
07/03:30am 11.3 10.4 10.5 95 0.4 S 6 7 3 4 1017.1 1015.8 0.0
07/03:00am 11.3 11.4 10.2 93 0.6 CALM 0 0 0 0 1017.1 1015.8 0.0
07/02:30am 11.9 11.9 11.1 95 0.4 SE 2 6 1 3 1017.1 1015.8 0.0
07/02:00am 11.6 10.6 10.3 92 0.7 ESE 6 9 3 5 1017.3 1016.0 0.0
07/01:30am 11.8 10.4 9.4 85 1.2 ENE 7 9 4 5 1017.6 1016.3 0.0
07/01:00am 13.1 12.0 10.6 85 1.3 NNE 7 9 4 5 1017.8 1016.5 0.0
07/12:30am 14.3 13.3 10.9 80 1.8 N 7 7 4 4 1017.9 1016.6 0.0
07/12:00am 14.0 14.1 10.0 77 2.1 CALM 0 0 0 0 1018.2 1016.8 0.0
 
Date/Time
EST
Temp
°C
App
Temp
°C
Dew
Point
°C
Rel
Hum
%
Delta-T
°C
Wind Press
QNH
hPa
Press
MSL
hPa
Rain since
9am
mm
Dir  Spd
km/h
Gust
km/h
Spd
kts
Gust
kts
06/11:30pm 14.1 14.3 10.5 79 1.9 CALM 0 0 0 0 1018.3 1016.9 0.0
06/11:00pm 15.6 15.9 13.3 86 1.3 N 4 7 2 4 1018.5 1017.1 0.0
06/10:30pm 15.5 15.0 12.8 84 1.5 ESE 7 11 4 6 1018.7 1017.3 0.0
06/10:00pm 15.9 14.5 12.3 79 2.0 SE 11 13 6 7 1018.7 1017.3 0.0
06/09:30pm 15.8 13.3 9.7 67 3.2 SSE 13 15 7 8 1018.5 1017.1 0.0
06/09:00pm 15.6 13.6 6.1 53 4.7 SW 6 9 3 5 1018.3 1016.9 0.0
06/08:30pm 16.1 13.8 5.7 50 5.1 SE 7 11 4 6 1017.8 1016.5 0.0
06/08:00pm 17.0 12.9 6.2 49 5.4 ESE 17 20 9 11 1017.5 1016.2 0.0
06/07:30pm 17.5 14.8 5.8 46 5.8 SW 9 11 5 6 1016.9 1015.6 0.0
06/07:00pm 18.1 15.0 5.7 44 6.2 SW 11 13 6 7 1016.5 1015.1 0.0
06/06:30pm 19.1 15.5 5.2 40 6.9 SW 13 15 7 8 1016.2 1014.8 0.0
06/06:00pm 21.7 17.4 5.2 34 8.3 SW 17 20 9 11 1015.9 1014.5 0.0
06/05:30pm 23.7 19.5 5.6 31 9.3 SW 17 20 9 11 1015.7 1014.3 0.0
06/05:00pm 25.4 21.6 5.6 28 10.3 SW 15 20 8 11 1015.4 1014.1 0.0
06/04:30pm 26.1 22.9 5.1 26 10.9 SW 11 17 6 9 1015.2 1013.9 0.0
06/04:00pm 26.9 23.5 5.8 26 11.1 SW 13 20 7 11 1015.0 1013.7 0.0
06/03:30pm 26.5 23.2 4.3 24 11.4 SSW 11 19 6 10 1015.1 1013.8 0.0
06/03:00pm 26.5 23.4 5.5 26 11.0 SSE 11 17 6 9 1015.2 1013.9 0.0
06/02:30pm 26.6 23.5 5.5 26 11.1 SSW 11 20 6 11 1015.6 1014.2 0.0
06/02:00pm 26.5 21.9 5.5 26 11.0 WSW 19 26 10 14 1015.7 1014.3 0.0
06/01:30pm 26.7 23.7 6.2 27 10.9 SW 11 20 6 11 1015.8 1014.4 0.0
06/01:00pm 25.6 22.7 6.3 29 10.2 SW 11 20 6 11 1016.3 1014.9 0.0
06/12:30pm 25.0 21.6 5.7 29 10.1 SW 13 22 7 12 1016.8 1015.4 0.0
06/12:00pm 24.9 21.5 7.5 33 9.3 WNW 15 22 8 12 1017.4 1016.1 0.0
06/11:30am 24.3 22.5 7.9 35 8.8 SW 7 15 4 8 1018.0 1016.7 0.0
06/11:00am 23.3 20.4 6.6 34 8.7 W 11 17 6 9 1018.5 1017.1 0.0
06/10:30am 22.3 19.9 6.9 37 8.1 S 9 15 5 8 1018.7 1017.3 0.0
06/10:00am 21.6 19.7 7.4 40 7.5 NE 7 11 4 6 1018.9 1017.5 0.0
06/09:30am 18.9 17.0 7.7 48 5.8 WSW 7 11 4 6 1019.1 1017.8 0.0
06/09:00am 17.8 16.8 7.2 50 5.4 SSW 2 7 1 4 1019.3 1018.0 0.0
06/08:30am 15.9 15.3 7.4 57 4.3 CALM 0 6 0 3 1019.3 1018.0 0.0
06/08:00am 13.7 12.0 7.7 67 3.0 NNE 6 7 3 4 1019.2 1017.9 0.0
06/07:30am 11.6 10.7 7.7 77 1.9 E 2 6 1 3 1019.1 1017.8 0.0
06/07:00am 8.9 7.0 7.7 92 0.6 E 7 9 4 5 1018.8 1017.4 0.0
06/06:30am 5.7 2.9 5.0 95 0.3 ESE 9 11 5 6 1018.4 1017.0 0.0
06/06:00am 5.0 2.4 4.0 93 0.4 SE 7 9 4 5 1018.2 1016.8 0.0
06/05:30am 4.9 2.4 3.7 92 0.5 E 6 7 3 4 1018.2 1016.8 0.0
06/05:00am 5.6 3.1 4.6 93 0.4 E 7 9 4 5 1017.8 1016.5 0.0
06/04:30am 5.9 3.0 4.7 92 0.5 E 9 11 5 6 1017.5 1016.2 0.0
06/04:00am 5.8 4.5 4.3 90 0.7 CALM 0 0 0 0 1017.3 1016.0 0.0
06/03:30am 5.9 3.3 4.1 88 0.8 E 7 9 4 5 1017.0 1015.7 0.0
06/03:00am 6.1 3.1 4.3 88 0.8 NE 9 11 5 6 1017.1 1015.8 0.0
06/02:30am 6.6 4.3 4.6 87 0.9 ENE 6 7 3 4 1017.1 1015.8 0.0
06/02:00am 7.0 4.7 4.7 85 1.0 ENE 6 9 3 5 1017.3 1016.0 0.0
06/01:30am 7.9 5.2 5.5 85 1.1 NNE 9 11 5 6 1017.4 1016.1 0.0
06/01:00am 8.4 5.2 5.3 81 1.4 NNE 11 13 6 7 1017.4 1016.1 0.0
06/12:30am 8.9 5.9 6.0 82 1.4 NNE 11 11 6 6 1017.7 1016.4 0.0
06/12:00am 9.2 6.1 5.6 78 1.7 N 11 13 6 7 1017.9 1016.6 0.0
 
Date/Time
EST
Temp
°C
App
Temp
°C
Dew
Point
°C
Rel
Hum
%
Delta-T
°C
Wind Press
QNH
hPa
Press
MSL
hPa
Rain since
9am
mm
Dir  Spd
km/h
Gust
km/h
Spd
kts
Gust
kts
05/11:30pm 9.2 7.0 5.2 76 1.8 NNE 6 7 3 4 1018.0 1016.7 0.0
05/11:00pm 9.9 7.9 6.4 79 1.7 NE 6 7 3 4 1018.4 1017.0 0.0
05/10:30pm 10.4 9.5 6.2 75 2.0 CALM 0 0 0 0 1018.5 1017.1 0.0
05/10:00pm 10.7 7.7 6.1 73 2.2 SE 11 13 6 7 1018.5 1017.1 0.0
05/09:30pm 12.2 10.2 6.3 67 2.9 ESE 6 9 3 5 1018.4 1017.0 0.0
05/09:00pm 14.0 12.6 7.3 64 3.3 ESE 4 7 2 4 1018.2 1016.8 0.0
05/08:30pm 14.6 13.6 5.7 55 4.3 CALM 0 0 0 0 1017.9 1016.6 0.0
05/08:00pm 15.8 12.6 5.1 49 5.2 WSW 11 15 6 8 1017.5 1016.2 0.0
05/07:30pm 17.8 14.3 5.4 44 6.1 SSW 13 17 7 9 1017.2 1015.9 0.0
05/07:00pm 18.8 15.0 5.6 42 6.6 SW 15 17 8 9 1016.8 1015.4 0.0
05/06:30pm 19.7 15.9 5.7 40 7.1 SW 15 20 8 11 1016.4 1015.0 0.0
05/06:00pm 19.8 16.3 5.5 39 7.2 SW 13 15 7 8 1016.0 1014.6 0.0
05/05:30pm 22.5 19.0 5.4 33 8.7 SW 13 17 7 9 1015.6 1014.2 0.0
05/05:00pm 23.8 20.1 6.1 32 9.2 SSW 15 20 8 11 1015.1 1013.8 0.0
05/04:30pm 24.6 20.5 6.4 31 9.6 SSW 17 24 9 13 1014.9 1013.6 0.0
05/04:00pm 24.7 20.6 6.4 31 9.6 SW 17 26 9 14 1014.7 1013.4 0.0
05/03:30pm 25.6 21.1 6.3 29 10.2 SW 19 32 10 17 1014.8 1013.5 0.0
05/03:00pm 25.3 20.8 4.4 26 10.7 SW 17 24 9 13 1014.7 1013.4 0.0
05/02:30pm 25.1 20.2 5.3 28 10.2 SW 20 32 11 17 1014.8 1013.5 0.0
05/02:00pm 24.6 20.0 5.4 29 9.9 SW 19 26 10 14 1014.9 1013.6 0.0
05/01:30pm 24.2 20.0 5.5 30 9.7 SSW 17 24 9 13 1015.2 1013.9 0.0
05/01:00pm 24.1 19.9 5.9 31 9.5 SW 17 30 9 16 1015.6 1014.2 0.0
05/12:30pm 23.9 19.1 4.8 29 9.7 SW 19 30 10 16 1016.2 1014.8 0.0
05/12:00pm 23.6 19.1 6.0 32 9.1 SW 19 30 10 16 1016.5 1015.1 0.0
05/11:30am 23.1 19.1 5.1 31 9.2 SW 15 22 8 12 1016.7 1015.3 0.0
05/11:00am 23.3 18.8 4.3 29 9.5 WSW 17 26 9 14 1017.1 1015.8 0.0
05/10:30am 22.3 18.4 7.3 38 7.9 WSW 17 26 9 14 1017.2 1015.9 0.0
05/10:00am 21.5 18.0 7.3 40 7.4 WSW 15 24 8 13 1017.5 1016.2 0.0
05/09:30am 20.6 18.6 10.1 51 5.8 W 11 20 6 11 1017.6 1016.3 0.0
05/09:00am 19.0 17.6 12.3 65 3.8 SW 11 15 6 8 1017.6 1016.3 0.2
05/08:30am 17.9 16.6 12.6 71 3.0 W 11 19 6 10 1017.4 1016.1 0.2
05/08:00am 17.2 16.2 13.3 78 2.2 W 11 15 6 8 1017.2 1015.9 0.2
05/07:30am 15.5 14.7 13.9 90 0.9 WNW 11 13 6 7 1016.8 1015.4 0.2
05/07:00am 14.1 13.5 13.6 97 0.3 WNW 9 13 5 7 1016.4 1015.0 0.2
05/06:30am 12.0 10.8 11.5 97 0.3 NW 9 11 5 6 1015.9 1014.5 0.2

Other formats

Comma delimited format used in spreadsheet applications
http://www.bom.gov.au/fwo/IDQ60801/IDQ60801.94552.axf

JavaScript Object Notation format (JSON) in row-major order
http://www.bom.gov.au/fwo/IDQ60801/IDQ60801.94552.json

Data quality

Most of these data are generated automatically and are frequently updated. Quality checks on data are not normally performed. It is possible for incorrect values to appear. Refer to information at About Latest Weather Observations and please check the disclaimer before using these data.